createdAt,value
2022-12-11T00:11:08.849Z,-2.09
2022-12-11T00:26:10.284Z,-2.06
2022-12-11T00:41:11.634Z,-2.09
2022-12-11T00:56:13.376Z,-2.15
2022-12-11T01:11:14.413Z,-2.09
2022-12-11T01:26:14.718Z,-2.13
2022-12-11T01:41:16.000Z,-2.08
2022-12-11T01:56:17.440Z,-2.13
2022-12-11T02:11:18.069Z,-2.10
2022-12-11T02:26:18.901Z,-2.16
2022-12-11T02:41:20.652Z,-2.18
2022-12-11T02:56:21.419Z,-2.18
2022-12-11T03:11:22.194Z,-2.16
2022-12-11T03:26:23.684Z,-2.16
2022-12-11T03:41:24.395Z,-2.12
2022-12-11T03:56:24.977Z,-2.09
2022-12-11T04:11:25.143Z,-2.09
2022-12-11T04:26:25.327Z,-2.12
2022-12-11T04:41:26.035Z,-2.12
2022-12-11T04:56:26.668Z,-2.09
2022-12-11T05:11:26.874Z,-2.08
2022-12-11T05:26:27.078Z,-2.06
2022-12-11T05:41:27.226Z,-2.09
2022-12-11T05:56:28.446Z,-2.24
2022-12-11T06:11:29.127Z,-2.34
2022-12-11T06:26:29.750Z,-2.48
2022-12-11T06:41:29.984Z,-2.42
2022-12-11T06:56:30.203Z,-2.58
2022-12-11T07:11:30.462Z,-2.63
2022-12-11T07:26:31.667Z,-2.70
2022-12-11T07:41:32.247Z,-2.67
2022-12-11T07:56:32.420Z,-2.61
2022-12-11T08:11:32.749Z,-2.50
2022-12-11T08:26:33.038Z,-2.45
2022-12-11T08:41:34.801Z,-2.34
2022-12-11T08:56:36.675Z,-2.23
2022-12-11T09:11:37.571Z,-2.09
2022-12-11T09:26:39.038Z,-2.05
2022-12-11T09:41:41.078Z,-1.92
2022-12-11T09:56:41.846Z,-1.87
2022-12-11T10:11:42.479Z,-1.70
2022-12-11T10:26:42.677Z,-1.45
2022-12-11T10:41:42.899Z,-1.40
2022-12-11T10:56:43.040Z,-0.95
2022-12-11T11:11:43.500Z,-0.94
2022-12-11T11:27:12.152Z,-0.86
2022-12-11T11:41:50.029Z,-0.72
2022-12-11T11:56:50.124Z,-0.47
2022-12-11T12:11:50.393Z,-0.42
2022-12-11T12:26:51.487Z,-0.22
2022-12-11T12:41:54.968Z,-0.14
2022-12-11T12:56:55.818Z,-0.19
2022-12-11T13:11:57.735Z,-0.36
2022-12-11T13:26:58.010Z,-0.40
2022-12-11T13:41:58.251Z,-0.54
2022-12-11T13:56:58.406Z,-0.57
2022-12-11T14:11:59.228Z,-0.61
2022-12-11T14:27:00.325Z,-0.79
2022-12-11T14:42:00.835Z,-0.89
2022-12-11T14:57:01.453Z,-0.82
2022-12-11T15:12:02.030Z,-1.01
2022-12-11T15:27:02.212Z,-0.98
2022-12-11T15:42:02.445Z,-1.12
2022-12-11T15:57:02.613Z,-1.17
2022-12-11T16:12:02.921Z,-1.28
2022-12-11T16:27:03.038Z,-1.28
2022-12-11T16:42:03.255Z,-1.41
2022-12-11T16:57:03.462Z,-1.37
2022-12-11T17:12:04.143Z,-1.35
2022-12-11T17:27:04.771Z,-1.43
2022-12-11T17:42:04.937Z,-1.37
2022-12-11T17:57:06.702Z,-1.56
2022-12-11T18:12:10.377Z,-1.66
2022-12-11T18:27:11.717Z,-1.77
2022-12-11T18:42:34.214Z,-1.77
2022-12-11T18:57:19.572Z,-1.79
2022-12-11T19:12:19.718Z,-1.82
2022-12-11T19:27:21.334Z,-1.77
2022-12-11T19:42:22.022Z,-1.70
2022-12-11T19:57:22.661Z,-1.76
2022-12-11T20:12:23.785Z,-1.87
2022-12-11T20:27:24.044Z,-1.85
2022-12-11T20:42:24.109Z,-1.87
2022-12-11T20:57:31.889Z,-1.80
2022-12-11T21:12:31.912Z,-1.73
2022-12-11T21:27:32.654Z,-1.70
2022-12-11T21:42:33.356Z,-1.64
2022-12-11T21:57:34.706Z,-1.62
2022-12-11T22:12:35.327Z,-1.54
2022-12-11T22:27:35.635Z,-1.49
2022-12-11T22:42:35.690Z,-1.46
2022-12-11T22:57:35.937Z,-1.43
2022-12-11T23:12:36.609Z,-1.41
2022-12-11T23:27:42.505Z,-1.40
2022-12-11T23:42:42.956Z,-1.41
2022-12-11T23:57:43.620Z,-1.31
